createdAt,value
2019-03-16T00:00:21.282Z,93559.97
2019-03-16T00:02:49.939Z,93558.60
2019-03-16T00:05:18.721Z,93553.72
2019-03-16T00:07:47.327Z,93563.42
2019-03-16T00:10:16.012Z,93561.75
2019-03-16T00:12:44.638Z,93569.07
2019-03-16T00:15:13.239Z,93564.93
2019-03-16T00:17:42.017Z,93559.99
2019-03-16T00:20:11.821Z,93565.02
2019-03-16T00:22:40.794Z,93554.05
2019-03-16T00:25:10.422Z,93559.97
2019-03-16T00:27:39.111Z,93553.55
2019-03-16T00:30:10.638Z,93559.36
2019-03-16T00:32:39.455Z,93552.73
2019-03-16T00:35:08.063Z,93557.80
2019-03-16T00:37:37.921Z,93546.23
2019-03-16T00:40:12.058Z,93544.16
2019-03-16T00:42:40.806Z,93541.55
2019-03-16T00:45:12.575Z,93533.95
2019-03-16T00:47:41.622Z,93544.83
2019-03-16T00:50:13.330Z,93540.59
2019-03-16T00:52:41.929Z,93539.09
2019-03-16T00:55:12.738Z,93541.16
2019-03-16T00:57:41.487Z,93539.61
2019-03-16T01:00:12.418Z,93543.86
2019-03-16T01:02:41.109Z,93541.18
2019-03-16T01:05:09.850Z,93540.28
2019-03-16T01:07:38.511Z,93542.88
2019-03-16T01:10:09.022Z,93542.17
2019-03-16T01:12:37.697Z,93547.81
2019-03-16T01:15:12.435Z,93544.94
2019-03-16T01:17:41.456Z,93538.52
2019-03-16T01:20:13.819Z,93535.55
2019-03-16T01:22:42.520Z,93547.51
2019-03-16T01:25:12.987Z,93539.48
2019-03-16T01:27:41.654Z,93531.68
2019-03-16T01:30:13.670Z,93532.47
2019-03-16T01:32:42.377Z,93535.05
2019-03-16T01:35:10.971Z,93537.43
2019-03-16T01:37:39.575Z,93542.86
2019-03-16T01:40:10.256Z,93531.68
2019-03-16T01:42:38.896Z,93541.29
2019-03-16T01:45:10.131Z,93546.52
2019-03-16T01:47:39.170Z,93535.83
2019-03-16T01:50:13.028Z,93524.16
2019-03-16T01:52:41.641Z,93536.52
2019-03-16T01:55:10.304Z,93527.62
2019-03-16T01:57:38.914Z,93533.26
2019-03-16T02:00:10.615Z,93523.35
2019-03-16T02:02:39.428Z,93522.47
2019-03-16T02:05:08.595Z,93535.64
2019-03-16T02:07:37.210Z,93521.18
2019-03-16T02:10:07.585Z,93523.46
2019-03-16T02:12:36.217Z,93535.05
2019-03-16T02:15:06.595Z,93532.25
2019-03-16T02:17:35.420Z,93532.34
2019-03-16T02:20:05.420Z,93529.77
2019-03-16T02:22:34.088Z,93529.58
2019-03-16T02:25:02.696Z,93531.77
2019-03-16T02:27:32.025Z,93538.59
2019-03-16T02:30:00.720Z,93531.84
2019-03-16T02:32:29.352Z,93532.17
2019-03-16T02:34:58.046Z,93547.41
2019-03-16T02:37:27.607Z,93530.89
2019-03-16T02:39:56.268Z,93535.09
2019-03-16T02:42:24.971Z,93539.77
2019-03-16T02:44:53.770Z,93548.61
2019-03-16T02:47:22.449Z,93549.91
2019-03-16T02:49:51.151Z,93552.81
2019-03-16T02:52:19.747Z,93552.86
2019-03-16T02:54:48.578Z,93546.33
2019-03-16T02:57:17.454Z,93560.58
2019-03-16T02:59:46.033Z,93556.50
2019-03-16T03:02:14.736Z,93547.96
2019-03-16T03:04:45.869Z,93549.84
2019-03-16T03:07:14.084Z,93545.28
2019-03-16T03:09:43.671Z,93539.94
2019-03-16T03:12:12.395Z,93557.20
2019-03-16T03:14:41.067Z,93553.80
2019-03-16T03:17:10.701Z,93563.61
2019-03-16T03:19:39.486Z,93571.03
2019-03-16T03:22:08.152Z,93568.59
2019-03-16T03:24:36.840Z,93568.56
2019-03-16T03:27:05.589Z,93576.88
2019-03-16T03:29:34.271Z,93584.33
2019-03-16T03:32:03.366Z,93582.46
2019-03-16T03:34:32.067Z,93585.31
2019-03-16T03:37:00.730Z,93577.91
2019-03-16T03:39:29.498Z,93561.33
2019-03-16T03:41:59.762Z,93557.17
2019-03-16T03:44:28.364Z,93567.23
2019-03-16T03:46:57.030Z,93589.33
2019-03-16T03:49:26.275Z,93594.08
2019-03-16T03:51:55.083Z,93580.91
2019-03-16T03:54:23.760Z,93587.08
2019-03-16T03:56:53.581Z,93592.00
2019-03-16T03:59:22.350Z,93601.52
2019-03-16T04:01:51.095Z,93598.19
2019-03-16T04:04:20.047Z,93589.77
2019-03-16T04:06:48.888Z,93587.38
2019-03-16T04:09:17.513Z,93596.88
2019-03-16T04:11:46.197Z,93605.38
2019-03-16T04:14:15.462Z,93610.03
2019-03-16T04:16:44.878Z,93604.92
2019-03-16T04:19:13.716Z,93602.83
2019-03-16T04:21:42.323Z,93609.08
2019-03-16T04:24:11.060Z,93607.61
2019-03-16T04:26:39.866Z,93602.75
2019-03-16T04:29:09.331Z,93615.13
2019-03-16T04:31:38.003Z,93612.53
2019-03-16T04:34:06.733Z,93612.55
2019-03-16T04:36:35.520Z,93605.31
2019-03-16T04:39:05.963Z,93615.52
2019-03-16T04:41:34.695Z,93628.50
2019-03-16T04:44:03.405Z,93623.31
2019-03-16T04:46:32.092Z,93620.55
2019-03-16T04:49:01.925Z,93617.20
2019-03-16T04:51:30.561Z,93621.77
2019-03-16T04:53:59.365Z,93624.13
2019-03-16T04:56:28.194Z,93633.61
2019-03-16T04:58:57.347Z,93630.07
2019-03-16T05:01:26.640Z,93645.13
2019-03-16T05:03:55.760Z,93636.36
2019-03-16T05:06:24.431Z,93633.91
2019-03-16T05:08:53.180Z,93622.98
2019-03-16T05:11:22.596Z,93628.46
2019-03-16T05:13:51.223Z,93637.39
2019-03-16T05:16:20.278Z,93629.37
2019-03-16T05:18:48.899Z,93642.84
2019-03-16T05:21:17.609Z,93643.14
2019-03-16T05:23:46.253Z,93639.98
2019-03-16T05:26:14.949Z,93643.55
2019-03-16T05:28:43.562Z,93651.45
2019-03-16T05:31:12.245Z,93651.66
2019-03-16T05:33:40.870Z,93660.28
2019-03-16T05:36:09.477Z,93661.06
2019-03-16T05:38:39.597Z,93668.69
2019-03-16T05:41:08.217Z,93661.55
2019-03-16T05:43:38.491Z,93669.67
2019-03-16T05:46:07.115Z,93683.94
2019-03-16T05:48:35.795Z,93685.83
2019-03-16T05:51:04.535Z,93692.44
2019-03-16T05:53:33.238Z,93700.16
2019-03-16T05:56:01.920Z,93697.69
2019-03-16T05:58:30.663Z,93707.50
2019-03-16T06:00:59.422Z,93708.10
2019-03-16T06:03:28.082Z,93712.75
2019-03-16T06:05:56.762Z,93704.33
2019-03-16T06:08:25.472Z,93726.22
2019-03-16T06:10:54.717Z,93712.77
2019-03-16T06:13:23.421Z,93714.73
2019-03-16T06:15:52.142Z,93712.87
2019-03-16T06:18:20.827Z,93708.32
2019-03-16T06:20:49.489Z,93726.44
2019-03-16T06:23:18.312Z,93715.64
2019-03-16T06:25:47.318Z,93722.36
2019-03-16T06:28:15.983Z,93724.17
2019-03-16T06:30:44.712Z,93719.50
2019-03-16T06:33:14.205Z,93720.21
2019-03-16T06:35:42.833Z,93723.18
2019-03-16T06:38:12.000Z,93726.45
2019-03-16T06:40:40.693Z,93728.34
2019-03-16T06:43:09.463Z,93732.88
2019-03-16T06:45:39.372Z,93735.75
2019-03-16T06:48:08.041Z,93732.10
2019-03-16T06:50:36.691Z,93731.09
2019-03-16T06:53:05.385Z,93728.48
2019-03-16T06:55:34.512Z,93745.25
2019-03-16T06:58:03.303Z,93735.95
2019-03-16T07:00:32.027Z,93749.41
2019-03-16T07:03:00.706Z,93753.18
2019-03-16T07:05:38.116Z,93742.59
2019-03-16T07:08:00.841Z,93742.77
2019-03-16T07:10:29.529Z,93760.32
2019-03-16T07:12:58.179Z,93750.75
2019-03-16T07:15:28.034Z,93752.34
2019-03-16T07:17:56.716Z,93755.56
2019-03-16T07:20:25.330Z,93761.97
2019-03-16T07:22:54.021Z,93755.95
2019-03-16T07:25:23.135Z,93743.69
2019-03-16T07:27:51.815Z,93754.09
2019-03-16T07:30:20.559Z,93758.31
2019-03-16T07:32:49.233Z,93759.88
2019-03-16T07:35:18.506Z,93763.13
2019-03-16T07:37:47.208Z,93756.60
2019-03-16T07:40:15.801Z,93759.66
2019-03-16T07:42:44.513Z,93767.64
2019-03-16T07:45:13.814Z,93765.86
2019-03-16T07:47:42.504Z,93768.20
2019-03-16T07:50:13.506Z,93775.69
2019-03-16T07:52:42.225Z,93771.58
2019-03-16T07:55:11.286Z,93786.70
2019-03-16T07:57:41.112Z,93785.38
2019-03-16T08:00:12.034Z,93782.57
2019-03-16T08:02:41.303Z,93782.80
2019-03-16T08:05:18.314Z,93794.70
2019-03-16T08:07:41.882Z,93807.72
2019-03-16T08:10:11.259Z,93792.34
2019-03-16T08:12:42.934Z,93802.82
2019-03-16T08:15:14.024Z,93816.85
2019-03-16T08:17:42.776Z,93808.49
2019-03-16T08:20:12.002Z,93812.59
2019-03-16T08:22:40.606Z,93812.72
2019-03-16T08:25:10.533Z,93822.34
2019-03-16T08:27:52.982Z,93826.73
2019-03-16T08:30:11.327Z,93825.38
2019-03-16T08:32:39.952Z,93836.98
2019-03-16T08:35:09.427Z,93830.22
2019-03-16T08:37:38.079Z,93833.39
2019-03-16T08:40:11.412Z,93837.65
2019-03-16T08:42:40.158Z,93844.11
2019-03-16T08:45:11.798Z,93836.21
2019-03-16T08:47:40.752Z,93843.48
2019-03-16T08:50:10.767Z,93845.48
2019-03-16T08:52:39.509Z,93845.07
2019-03-16T08:55:09.282Z,93845.32
2019-03-16T08:57:38.493Z,93843.40
2019-03-16T09:00:09.966Z,93841.73
2019-03-16T09:02:39.514Z,93840.07
2019-03-16T09:05:08.943Z,93852.75
2019-03-16T09:07:37.630Z,93845.54
2019-03-16T09:10:08.829Z,93854.34
2019-03-16T09:12:37.483Z,93863.45
2019-03-16T09:15:12.424Z,93862.31
2019-03-16T09:17:42.750Z,93872.30
2019-03-16T09:20:11.687Z,93869.70
2019-03-16T09:22:40.315Z,93866.90
2019-03-16T09:25:10.389Z,93872.40
2019-03-16T09:27:42.023Z,93878.00
2019-03-16T09:30:15.431Z,93882.02
2019-03-16T09:32:44.219Z,93877.12
2019-03-16T09:35:13.176Z,93890.58
2019-03-16T09:37:41.852Z,93887.90
2019-03-16T09:40:11.475Z,93893.11
2019-03-16T09:42:41.524Z,93895.63
2019-03-16T09:45:13.025Z,93899.69
2019-03-16T09:47:42.095Z,93899.98
2019-03-16T09:50:13.357Z,93900.22
2019-03-16T09:52:42.409Z,93894.37
2019-03-16T09:55:12.077Z,93898.42
2019-03-16T09:57:40.857Z,93896.39
2019-03-16T10:00:17.455Z,93901.80
2019-03-16T10:02:47.396Z,93910.16
2019-03-16T10:05:17.737Z,93909.36
2019-03-16T10:07:46.491Z,93908.27
2019-03-16T10:10:15.726Z,93907.70
2019-03-16T10:12:45.098Z,93920.73
2019-03-16T10:15:14.615Z,93911.16
2019-03-16T10:17:43.464Z,93913.89
2019-03-16T10:20:15.882Z,93920.15
2019-03-16T10:22:45.113Z,93917.20
2019-03-16T10:25:13.828Z,93916.84
2019-03-16T10:27:42.515Z,93908.29
2019-03-16T10:30:14.996Z,93910.58
2019-03-16T10:32:43.725Z,93914.09
2019-03-16T10:35:13.425Z,93916.99
2019-03-16T10:37:43.716Z,93911.44
2019-03-16T10:40:14.200Z,93919.00
2019-03-16T10:42:42.825Z,93923.75
2019-03-16T10:45:12.241Z,93919.50
2019-03-16T10:47:40.942Z,93928.27
2019-03-16T10:50:13.429Z,93921.81
2019-03-16T10:52:42.121Z,93920.43
2019-03-16T10:55:10.943Z,93917.92
2019-03-16T10:57:39.548Z,93900.73
2019-03-16T11:00:16.031Z,93913.95
2019-03-16T11:02:45.135Z,93912.59
2019-03-16T11:05:13.862Z,93919.72
2019-03-16T11:07:42.586Z,93918.00
2019-03-16T11:10:14.871Z,93916.45
2019-03-16T11:12:44.664Z,93924.30
2019-03-16T11:15:14.384Z,93916.80
2019-03-16T11:17:44.675Z,93914.06
2019-03-16T11:20:18.543Z,93913.48
2019-03-16T11:22:47.240Z,93911.17
2019-03-16T11:25:16.841Z,93906.45
2019-03-16T11:27:45.550Z,93916.45
2019-03-16T11:30:20.536Z,93906.21
2019-03-16T11:32:49.230Z,93900.45
2019-03-16T11:35:17.901Z,93894.97
2019-03-16T11:37:46.956Z,93897.09
2019-03-16T11:40:19.613Z,93894.66
2019-03-16T11:42:48.311Z,93891.17
2019-03-16T11:45:17.584Z,93882.91
2019-03-16T11:47:46.419Z,93877.27
2019-03-16T11:50:15.321Z,93881.25
2019-03-16T11:52:43.929Z,93871.96
2019-03-16T11:55:12.726Z,93873.55
2019-03-16T11:57:41.793Z,93869.41
2019-03-16T12:00:15.323Z,93870.78
2019-03-16T12:02:43.962Z,93862.69
2019-03-16T12:05:13.044Z,93865.53
2019-03-16T12:07:41.756Z,93852.23
2019-03-16T12:10:11.754Z,93852.55
2019-03-16T12:12:40.449Z,93851.72
2019-03-16T12:15:11.346Z,93847.69
2019-03-16T12:17:40.039Z,93845.55
2019-03-16T12:20:12.857Z,93827.61
2019-03-16T12:22:41.580Z,93827.70
2019-03-16T12:25:10.326Z,93830.34
2019-03-16T12:27:39.003Z,93826.08
2019-03-16T12:30:12.708Z,93822.16
2019-03-16T12:32:41.391Z,93825.46
2019-03-16T12:35:10.739Z,93810.60
2019-03-16T12:37:39.607Z,93811.29
2019-03-16T12:40:13.220Z,93807.05
2019-03-16T12:42:42.308Z,93808.10
2019-03-16T12:45:20.524Z,93810.28
2019-03-16T12:47:49.267Z,93805.17
2019-03-16T12:50:18.653Z,93806.50
2019-03-16T12:52:47.459Z,93802.16
2019-03-16T12:55:16.152Z,93801.77
2019-03-16T12:57:47.823Z,93800.78
2019-03-16T13:00:17.049Z,93800.73
2019-03-16T13:02:45.859Z,93788.37
2019-03-16T13:05:14.467Z,93790.34
2019-03-16T13:07:43.337Z,93788.98
2019-03-16T13:10:14.177Z,93783.67
2019-03-16T13:12:43.128Z,93787.58
2019-03-16T13:15:11.774Z,93784.58
2019-03-16T13:17:40.696Z,93765.34
2019-03-16T13:20:11.717Z,93762.47
2019-03-16T13:22:40.487Z,93753.59
2019-03-16T13:25:13.052Z,93738.98
2019-03-16T13:27:42.207Z,93735.84
2019-03-16T13:30:16.577Z,93724.54
2019-03-16T13:32:45.452Z,93712.83
2019-03-16T13:35:14.176Z,93713.64
2019-03-16T13:37:42.791Z,93713.70
2019-03-16T13:40:16.133Z,93694.73
2019-03-16T13:42:44.824Z,93692.75
2019-03-16T13:45:13.804Z,93682.30
2019-03-16T13:47:42.518Z,93682.55
2019-03-16T13:50:21.714Z,93682.66
2019-03-16T13:52:50.595Z,93688.93
2019-03-16T13:55:19.527Z,93683.27
2019-03-16T13:57:49.310Z,93673.91
2019-03-16T14:00:21.903Z,93685.86
2019-03-16T14:02:51.711Z,93675.61
2019-03-16T14:05:20.875Z,93684.86
2019-03-16T14:07:49.876Z,93673.65
2019-03-16T14:10:23.922Z,93667.94
2019-03-16T14:12:52.809Z,93664.53
2019-03-16T14:15:21.460Z,93666.65
2019-03-16T14:17:50.524Z,93663.40
2019-03-16T14:20:20.007Z,93661.89
2019-03-16T14:22:48.716Z,93663.06
2019-03-16T14:25:17.481Z,93654.60
2019-03-16T14:27:47.415Z,93660.03
2019-03-16T14:30:39.472Z,93659.50
2019-03-16T14:32:52.044Z,93664.58
2019-03-16T14:35:20.785Z,93659.47
2019-03-16T14:37:49.571Z,93659.50
2019-03-16T14:40:18.328Z,93652.68
2019-03-16T14:42:48.592Z,93642.87
2019-03-16T14:45:18.050Z,93646.75
2019-03-16T14:47:46.795Z,93645.41
2019-03-16T14:50:26.323Z,93637.63
2019-03-16T14:52:55.036Z,93639.61
2019-03-16T14:55:23.803Z,93640.88
2019-03-16T14:57:52.897Z,93644.92
2019-03-16T15:00:21.631Z,93638.63
2019-03-16T15:02:52.733Z,93639.41
2019-03-16T15:05:21.491Z,93638.52
2019-03-16T15:07:51.821Z,93628.41
2019-03-16T15:10:20.717Z,93629.67
2019-03-16T15:12:49.487Z,93630.28
2019-03-16T15:15:21.801Z,93632.02
2019-03-16T15:17:50.713Z,93632.73
2019-03-16T15:20:20.147Z,93631.78
2019-03-16T15:22:49.554Z,93627.18
2019-03-16T15:25:19.954Z,93619.41
2019-03-16T15:27:48.629Z,93613.48
2019-03-16T15:30:18.761Z,93617.76
2019-03-16T15:32:47.550Z,93616.46
2019-03-16T15:35:16.203Z,93626.58
2019-03-16T15:37:45.024Z,93617.61
2019-03-16T15:40:15.032Z,93607.38
2019-03-16T15:42:44.761Z,93605.43
2019-03-16T15:45:19.013Z,93605.40
2019-03-16T15:47:47.726Z,93604.02
2019-03-16T15:50:16.440Z,93603.72
2019-03-16T15:52:45.305Z,93607.32
2019-03-16T15:55:14.138Z,93602.91
2019-03-16T15:57:44.458Z,93600.82
2019-03-16T16:00:19.049Z,93604.84
2019-03-16T16:02:48.128Z,93601.91
2019-03-16T16:05:17.008Z,93607.73
2019-03-16T16:07:45.903Z,93599.07
2019-03-16T16:10:19.263Z,93598.69
2019-03-16T16:12:48.356Z,93604.18
2019-03-16T16:15:18.557Z,93608.69
2019-03-16T16:17:47.244Z,93607.13
2019-03-16T16:20:17.145Z,93614.59
2019-03-16T16:22:46.084Z,93615.70
2019-03-16T16:25:15.246Z,93621.97
2019-03-16T16:27:44.179Z,93628.05
2019-03-16T16:30:17.885Z,93622.70
2019-03-16T16:32:46.731Z,93633.51
2019-03-16T16:35:15.886Z,93636.56
2019-03-16T16:37:44.628Z,93629.81
2019-03-16T16:40:18.254Z,93638.95
2019-03-16T16:42:46.960Z,93641.76
2019-03-16T16:45:16.598Z,93631.09
2019-03-16T16:47:45.413Z,93643.91
2019-03-16T16:50:15.982Z,93631.44
2019-03-16T16:52:46.390Z,93635.40
2019-03-16T16:55:15.155Z,93620.69
2019-03-16T16:57:44.218Z,93635.90
2019-03-16T17:00:22.044Z,93639.23
2019-03-16T17:02:50.732Z,93648.21
2019-03-16T17:05:19.473Z,93642.69
2019-03-16T17:07:48.319Z,93647.25
2019-03-16T17:10:18.123Z,93651.34
2019-03-16T17:12:46.982Z,93645.75
2019-03-16T17:15:17.655Z,93647.59
2019-03-16T17:20:34.196Z,93646.05
2019-03-16T17:23:03.041Z,93649.95
2019-03-16T17:25:32.559Z,93651.59
2019-03-16T17:28:01.328Z,93657.70
2019-03-16T17:30:34.350Z,93657.46
2019-03-16T17:33:03.145Z,93659.45
2019-03-16T17:35:31.987Z,93668.31
2019-03-16T17:38:00.901Z,93677.15
2019-03-16T17:40:29.682Z,93673.19
2019-03-16T17:42:59.199Z,93676.73
2019-03-16T17:45:29.228Z,93676.94
2019-03-16T17:47:58.099Z,93685.56
2019-03-16T17:50:28.785Z,93681.64
2019-03-16T17:52:57.720Z,93681.21
2019-03-16T17:55:28.094Z,93685.86
2019-03-16T17:57:56.935Z,93686.17
2019-03-16T18:00:27.762Z,93691.58
2019-03-16T18:03:03.403Z,93699.13
2019-03-16T18:05:32.717Z,93698.84
2019-03-16T18:08:07.655Z,93701.35
2019-03-16T18:10:33.690Z,93696.00
2019-03-16T18:13:02.481Z,93698.94
2019-03-16T18:15:31.213Z,93709.16
2019-03-16T18:18:00.595Z,93703.11
2019-03-16T18:20:29.342Z,93713.73
2019-03-16T18:22:58.812Z,93707.61
2019-03-16T18:25:27.723Z,93712.37
2019-03-16T18:27:56.940Z,93712.86
2019-03-16T18:30:26.759Z,93721.79
2019-03-16T18:32:55.535Z,93721.41
2019-03-16T18:35:24.383Z,93727.34
2019-03-16T18:37:53.075Z,93732.59
2019-03-16T18:40:25.231Z,93734.28
2019-03-16T18:42:56.989Z,93733.77
2019-03-16T18:45:33.199Z,93741.89
2019-03-16T18:48:02.222Z,93740.42
2019-03-16T18:50:31.277Z,93742.89
2019-03-16T18:53:02.765Z,93746.65
2019-03-16T18:55:31.817Z,93750.68
2019-03-16T18:58:01.981Z,93749.39
2019-03-16T19:00:31.067Z,93751.86
2019-03-16T19:03:00.632Z,93746.58
2019-03-16T19:05:29.962Z,93748.25
2019-03-16T19:07:58.859Z,93744.25
2019-03-16T19:10:28.952Z,93744.70
2019-03-16T19:12:58.983Z,93742.31
2019-03-16T19:15:27.843Z,93748.15
2019-03-16T19:17:59.987Z,93736.95
2019-03-16T19:20:28.844Z,93736.73
2019-03-16T19:22:57.804Z,93742.14
2019-03-16T19:25:28.336Z,93745.40
2019-03-16T19:27:57.313Z,93747.56
2019-03-16T19:30:26.325Z,93747.37
2019-03-16T19:32:55.412Z,93746.61
2019-03-16T19:35:24.302Z,93748.67
2019-03-16T19:37:53.205Z,93749.55
2019-03-16T19:40:23.721Z,93752.05
2019-03-16T19:42:52.640Z,93757.45
2019-03-16T19:45:21.574Z,93748.38
2019-03-16T19:47:50.752Z,93742.81
2019-03-16T19:50:21.506Z,93755.61
2019-03-16T19:52:53.433Z,93747.93
2019-03-16T19:55:25.088Z,93750.39
2019-03-16T19:57:55.222Z,93748.38
2019-03-16T20:00:24.847Z,93745.88
2019-03-16T20:02:53.852Z,93747.80
2019-03-16T20:05:25.062Z,93756.05
2019-03-16T20:07:54.377Z,93755.70
2019-03-16T20:10:23.496Z,93750.25
2019-03-16T20:12:53.584Z,93746.67
2019-03-16T20:15:26.451Z,93751.75
2019-03-16T20:17:55.889Z,93751.75
2019-03-16T20:20:26.206Z,93763.60
2019-03-16T20:22:55.270Z,93763.83
2019-03-16T20:25:25.590Z,93763.77
2019-03-16T20:27:54.388Z,93756.25
2019-03-16T20:30:26.874Z,93759.23
2019-03-16T20:33:03.984Z,93765.25
2019-03-16T20:35:28.012Z,93770.17
2019-03-16T20:37:56.923Z,93769.26
2019-03-16T20:40:25.623Z,93760.63
2019-03-16T20:42:55.986Z,93762.89
2019-03-16T20:45:25.022Z,93762.77
2019-03-16T20:47:53.917Z,93762.17
2019-03-16T20:50:22.888Z,93761.63
2019-03-16T20:52:51.867Z,93769.27
2019-03-16T20:55:20.691Z,93770.75
2019-03-16T20:57:49.355Z,93770.84
2019-03-16T21:00:19.117Z,93768.59
2019-03-16T21:02:49.153Z,93774.80
2019-03-16T21:05:17.995Z,93768.00
2019-03-16T21:07:47.110Z,93777.36
2019-03-16T21:10:17.894Z,93766.41
2019-03-16T21:12:47.169Z,93763.17
2019-03-16T21:15:17.316Z,93775.13
2019-03-16T21:17:47.326Z,93777.60
2019-03-16T21:20:20.202Z,93781.27
2019-03-16T21:22:49.773Z,93787.99
2019-03-16T21:25:18.986Z,93785.82
2019-03-16T21:27:49.335Z,93785.20
2019-03-16T21:30:20.367Z,93790.14
2019-03-16T21:32:49.770Z,93801.47
2019-03-16T21:35:18.516Z,93803.61
2019-03-16T21:37:47.700Z,93805.07
2019-03-16T21:40:16.820Z,93801.70
2019-03-16T21:42:45.513Z,93799.27
2019-03-16T21:45:14.646Z,93798.57
2019-03-16T21:47:43.370Z,93794.93
2019-03-16T21:50:16.302Z,93800.78
2019-03-16T21:52:45.261Z,93798.58
2019-03-16T21:55:17.032Z,93811.56
2019-03-16T21:57:47.200Z,93802.05
2019-03-16T22:00:17.338Z,93798.99
2019-03-16T22:02:46.069Z,93805.89
2019-03-16T22:05:15.959Z,93802.22
2019-03-16T22:07:45.419Z,93802.53
2019-03-16T22:10:17.996Z,93809.97
2019-03-16T22:12:48.399Z,93813.19
2019-03-16T22:15:19.452Z,93810.31
2019-03-16T22:17:48.126Z,93811.37
2019-03-16T22:20:21.402Z,93807.53
2019-03-16T22:22:50.558Z,93806.13
2019-03-16T22:25:19.167Z,93797.30
2019-03-16T22:27:47.906Z,93799.61
2019-03-16T22:30:17.434Z,93805.05
2019-03-16T22:32:46.137Z,93798.14
2019-03-16T22:35:16.010Z,93798.55
2019-03-16T22:37:44.716Z,93797.93
2019-03-16T22:40:14.467Z,93798.30
2019-03-16T22:42:43.685Z,93797.63
2019-03-16T22:45:13.613Z,93802.75
2019-03-16T22:47:42.320Z,93797.84
2019-03-16T22:50:17.541Z,93799.42
2019-03-16T22:52:46.239Z,93799.47
2019-03-16T22:55:16.165Z,93792.80
2019-03-16T22:57:45.357Z,93792.09
2019-03-16T23:00:19.478Z,93797.49
2019-03-16T23:02:48.160Z,93789.44
2019-03-16T23:05:16.892Z,93796.83
2019-03-16T23:07:45.585Z,93792.75
2019-03-16T23:10:14.188Z,93791.74
2019-03-16T23:12:43.138Z,93794.83
2019-03-16T23:15:12.524Z,93788.24
2019-03-16T23:17:41.227Z,93787.73
2019-03-16T23:20:11.475Z,93786.85
2019-03-16T23:22:40.085Z,93781.11
2019-03-16T23:25:11.398Z,93779.38
2019-03-16T23:27:40.078Z,93778.67
2019-03-16T23:30:12.585Z,93784.38
2019-03-16T23:32:41.276Z,93776.93
2019-03-16T23:35:10.046Z,93775.55
2019-03-16T23:37:38.652Z,93775.60
2019-03-16T23:40:10.270Z,93780.38
2019-03-16T23:42:38.943Z,93783.39
2019-03-16T23:45:10.027Z,93776.54
2019-03-16T23:47:38.735Z,93779.31
2019-03-16T23:50:12.230Z,93774.28
2019-03-16T23:52:40.847Z,93776.78
2019-03-16T23:55:10.564Z,93780.38
2019-03-16T23:57:39.343Z,93774.67
